Time;durP1;ratioP1;P1;durP2;ratioP2;P2;SDS_P1;SDS_P2;PMS_P1;PMS_P2;Temp;Humidity;BMP_temperature;BMP_pressure;BME280_temperature;BME280_humidity;BME280_pressure;Samples;Min_cycle;Max_cycle;Signal;HPM_P1;HPM_P2
2022/06/29 00:00:18;;;;;;;3.88;1.02;;;20.60;62.70;;;;;;5008688;28;20026;-78
2022/06/29 00:02:44;;;;;;;2.80;1.10;;;20.60;62.00;;;;;;5003173;28;20164;-78
2022/06/29 00:05:15;;;;;;;1.67;0.85;;;20.60;62.10;;;;;;5004240;28;20060;-78
2022/06/29 00:07:42;;;;;;;2.92;0.90;;;20.50;63.80;;;;;;5009352;28;20030;-79
2022/06/29 00:10:10;;;;;;;4.22;1.08;;;20.60;62.60;;;;;;5004831;28;20021;-79
2022/06/29 00:12:36;;;;;;;3.17;0.90;;;20.50;62.40;;;;;;5010311;28;20019;-79
2022/06/29 00:15:02;;;;;;;5.00;1.23;;;20.50;63.00;;;;;;5001243;28;20109;-79
2022/06/29 00:17:30;;;;;;;3.85;1.10;;;20.50;62.80;;;;;;5004835;28;20880;-79
2022/06/29 00:20:02;;;;;;;1.70;0.77;;;20.50;62.70;;;;;;4997202;28;20034;-78
2022/06/29 00:22:28;;;;;;;4.80;1.23;;;20.50;62.20;;;;;;4998771;28;20045;-79
2022/06/29 00:24:57;;;;;;;3.75;0.90;;;20.40;63.00;;;;;;5015944;28;20108;-81
2022/06/29 00:27:24;;;;;;;1.65;0.88;;;20.40;62.60;;;;;;5016728;28;20044;-79
2022/06/29 00:29:50;;;;;;;4.47;1.35;;;20.40;62.40;;;;;;5005721;28;20030;-77
2022/06/29 00:32:16;;;;;;;2.90;1.25;;;20.30;61.60;;;;;;5012153;28;20179;-79
2022/06/29 00:34:43;;;;;;;3.40;0.98;;;20.30;62.00;;;;;;5007200;28;20034;-78
2022/06/29 00:37:09;;;;;;;2.47;1.00;;;20.30;62.70;;;;;;5010619;28;20037;-79
2022/06/29 00:39:34;;;;;;;4.40;1.10;;;20.30;62.90;;;;;;5009593;28;20036;-80
2022/06/29 00:42:00;;;;;;;3.13;1.27;;;20.30;63.30;;;;;;4993439;28;20026;-78
2022/06/29 00:44:26;;;;;;;3.67;1.25;;;20.30;62.70;;;;;;5002813;28;20500;-78
2022/06/29 00:46:58;;;;;;;1.13;0.73;;;20.30;63.20;;;;;;5010914;28;20554;-79
2022/06/29 00:49:26;;;;;;;2.92;1.13;;;20.30;63.20;;;;;;5005820;28;20116;-78
2022/06/29 00:52:00;;;;;;;3.78;1.48;;;20.30;62.40;;;;;;4999377;28;20023;-79
2022/06/29 00:54:26;;;;;;;3.88;0.98;;;20.20;61.80;;;;;;5000675;28;20125;-79
2022/06/29 00:56:52;;;;;;;2.03;1.05;;;20.20;62.10;;;;;;5009819;28;20449;-78
2022/06/29 00:59:24;;;;;;;3.40;1.10;;;20.20;64.30;;;;;;5010217;28;20030;-79
2022/06/29 01:01:50;;;;;;;2.80;1.08;;;20.20;62.90;;;;;;5000746;28;20034;-78
2022/06/29 01:04:17;;;;;;;5.03;1.10;;;20.10;62.80;;;;;;5004622;28;20054;-79
2022/06/29 01:06:43;;;;;;;4.38;0.95;;;20.10;62.90;;;;;;5008640;28;20497;-78
2022/06/29 01:09:09;;;;;;;4.35;1.33;;;20.10;63.90;;;;;;5008070;28;20073;-78
2022/06/29 01:11:35;;;;;;;6.15;1.50;;;20.00;63.30;;;;;;5006701;28;20026;-79
2022/06/29 01:14:01;;;;;;;2.70;1.10;;;20.00;62.90;;;;;;5009162;28;20805;-78
2022/06/29 01:16:28;;;;;;;3.55;1.58;;;20.00;63.20;;;;;;5006557;28;20030;-80
2022/06/29 01:18:54;;;;;;;2.90;1.40;;;19.90;62.60;;;;;;4990678;28;20412;-79
2022/06/29 01:21:21;;;;;;;4.43;1.00;;;19.90;62.90;;;;;;4994409;28;20056;-79
2022/06/29 01:23:46;;;;;;;3.95;1.38;;;19.90;63.50;;;;;;5021629;28;20034;-78
2022/06/29 01:26:12;;;;;;;4.82;1.70;;;19.90;63.50;;;;;;5003854;28;20044;-78
2022/06/29 01:28:46;;;;;;;4.00;0.95;;;19.80;63.50;;;;;;5005430;28;20061;-79
2022/06/29 01:31:19;;;;;;;2.75;1.15;;;19.80;63.80;;;;;;5001747;28;20030;-78
2022/06/29 01:33:47;;;;;;;3.22;1.10;;;19.70;64.80;;;;;;4993072;28;20580;-78
2022/06/29 01:36:14;;;;;;;3.85;1.52;;;19.70;63.90;;;;;;5001536;28;20026;-80
2022/06/29 01:38:44;;;;;;;4.03;1.10;;;19.70;63.70;;;;;;5005984;28;20033;-78
2022/06/29 01:41:10;;;;;;;;;;;19.70;64.20;;;;;;5008856;28;20855;-79
2022/06/29 01:43:39;;;;;;;2.80;1.20;;;19.70;64.00;;;;;;5001792;28;19913;-79
2022/06/29 01:46:06;;;;;;;3.70;1.25;;;19.60;63.90;;;;;;5005075;28;20508;-79
2022/06/29 01:48:32;;;;;;;4.47;1.45;;;19.60;64.30;;;;;;5001795;28;20496;-78
2022/06/29 01:50:58;;;;;;;5.43;1.63;;;19.60;64.10;;;;;;5005598;28;20014;-80
2022/06/29 01:53:24;;;;;;;4.50;1.70;;;19.50;64.40;;;;;;5002323;28;20037;-80
2022/06/29 01:55:50;;;;;;;3.35;1.45;;;19.50;64.00;;;;;;5001043;28;20025;-79
2022/06/29 01:58:16;;;;;;;3.92;1.40;;;19.50;64.10;;;;;;5009143;28;20038;-79
2022/06/29 02:00:42;;;;;;;3.10;1.70;;;19.40;64.70;;;;;;5004707;28;20053;-79
2022/06/29 02:03:09;;;;;;;6.85;1.80;;;19.40;64.00;;;;;;5005762;28;20049;-79
2022/06/29 02:05:34;;;;;;;5.10;1.90;;;19.40;64.40;;;;;;5009160;28;20117;-79
2022/06/29 02:08:00;;;;;;;5.85;1.60;;;19.40;64.20;;;;;;5009314;28;20106;-79
2022/06/29 02:10:26;;;;;;;6.18;1.88;;;19.30;64.20;;;;;;5010814;28;20152;-80
2022/06/29 02:12:51;;;;;;;5.00;1.48;;;19.30;64.30;;;;;;4998474;28;20026;-78
2022/06/29 02:15:18;;;;;;;4.90;1.77;;;19.30;64.20;;;;;;5008974;28;20068;-79
2022/06/29 02:17:43;;;;;;;5.90;1.70;;;19.30;64.10;;;;;;5006537;28;20097;-79
2022/06/29 02:20:11;;;;;;;2.78;1.50;;;19.30;64.10;;;;;;5009275;28;20141;-79
2022/06/29 02:22:37;;;;;;;3.92;1.48;;;19.30;64.10;;;;;;5008929;28;20014;-79
2022/06/29 02:25:03;;;;;;;3.83;1.50;;;19.30;64.30;;;;;;4996411;28;20393;-79
2022/06/29 02:27:29;;;;;;;4.50;1.40;;;19.30;64.50;;;;;;4999474;28;20018;-79
2022/06/29 02:29:55;;;;;;;4.85;2.00;;;19.20;64.50;;;;;;5007862;28;20500;-79
2022/06/29 02:35:05;;;;;;;5.32;2.13;;;19.20;65.10;;;;;;5002832;28;20048;-79
2022/06/29 02:37:31;;;;;;;4.47;2.20;;;19.20;64.70;;;;;;5005623;28;20544;-79
2022/06/29 02:39:57;;;;;;;4.97;1.85;;;19.20;64.50;;;;;;5001113;28;20080;-79
2022/06/29 02:42:22;;;;;;;3.17;1.17;;;19.30;64.60;;;;;;5009315;28;20076;-79
2022/06/29 02:44:49;;;;;;;6.28;2.15;;;19.30;64.90;;;;;;5009851;28;20029;-79
2022/06/29 02:47:16;;;;;;;4.43;1.75;;;19.20;65.20;;;;;;5010016;28;20034;-79
2022/06/29 02:49:42;;;;;;;4.57;1.90;;;19.20;64.90;;;;;;5001129;28;20026;-79
2022/06/29 02:52:08;;;;;;;2.88;1.20;;;19.20;65.00;;;;;;5009271;28;20135;-79
2022/06/29 02:54:34;;;;;;;2.95;1.42;;;19.20;65.50;;;;;;5004520;28;20026;-79
2022/06/29 02:56:59;;;;;;;4.65;2.17;;;19.10;65.50;;;;;;5000249;28;20023;-78
2022/06/29 02:59:25;;;;;;;5.43;2.40;;;19.10;65.30;;;;;;5003546;28;20030;-78
2022/06/29 03:01:50;;;;;;;4.85;1.75;;;19.10;65.50;;;;;;5006544;28;20030;-78
2022/06/29 03:04:16;;;;;;;3.67;1.92;;;19.20;65.30;;;;;;5003973;28;20184;-80
2022/06/29 03:06:42;;;;;;;4.45;1.80;;;19.10;65.40;;;;;;5008490;28;20416;-79
2022/06/29 03:09:07;;;;;;;4.00;1.65;;;19.10;65.40;;;;;;5005437;28;20204;-79
2022/06/29 03:11:33;;;;;;;6.15;2.53;;;19.10;65.40;;;;;;4999035;28;20411;-79
2022/06/29 03:13:59;;;;;;;5.07;2.28;;;19.10;65.40;;;;;;5005059;28;20063;-78
2022/06/29 03:16:25;;;;;;;5.68;2.47;;;19.00;65.40;;;;;;5002785;28;20018;-78
2022/06/29 03:18:51;;;;;;;3.28;1.90;;;19.00;65.40;;;;;;5004848;28;20145;-78
2022/06/29 03:21:17;;;;;;;4.68;2.58;;;19.10;65.50;;;;;;4999180;28;20121;-78
2022/06/29 03:23:44;;;;;;;2.92;1.50;;;19.00;65.50;;;;;;5003431;28;20031;-77
2022/06/29 03:26:13;;;;;;;6.20;2.47;;;19.00;65.80;;;;;;5000869;28;20034;-79
2022/06/29 03:28:39;;;;;;;6.50;2.50;;;19.00;65.90;;;;;;5002588;28;20041;-79
2022/06/29 03:31:05;;;;;;;3.92;2.42;;;19.00;65.70;;;;;;4997036;28;20484;-79
2022/06/29 03:33:31;;;;;;;3.92;2.20;;;19.00;65.90;;;;;;5009409;28;20132;-79
2022/06/29 03:35:56;;;;;;;3.92;1.85;;;19.00;66.00;;;;;;5026257;28;20187;-79
2022/06/29 03:38:22;;;;;;;4.43;2.03;;;18.90;66.00;;;;;;5006727;28;20026;-78
2022/06/29 03:40:48;;;;;;;5.30;2.22;;;18.90;66.10;;;;;;5007737;28;20104;-78
2022/06/29 03:43:13;;;;;;;3.58;2.05;;;18.90;66.20;;;;;;5005300;28;20373;-79
2022/06/29 03:45:39;;;;;;;4.32;2.03;;;18.90;66.20;;;;;;5027541;28;20046;-78
2022/06/29 03:48:05;;;;;;;4.45;2.03;;;18.90;66.20;;;;;;5011920;28;20049;-77
2022/06/29 03:50:31;;;;;;;3.22;1.58;;;18.80;66.10;;;;;;5010246;28;20123;-78
2022/06/29 03:52:57;;;;;;;7.85;2.80;;;18.80;66.30;;;;;;5008810;28;20030;-78
2022/06/29 03:55:22;;;;;;;4.80;2.00;;;18.80;66.50;;;;;;5008518;28;21373;-80
2022/06/29 03:57:48;;;;;;;5.28;2.50;;;18.80;66.50;;;;;;5009429;28;20049;-79
2022/06/29 04:00:14;;;;;;;5.88;2.47;;;18.80;66.70;;;;;;5008423;28;20023;-79
2022/06/29 04:02:40;;;;;;;4.45;2.40;;;18.80;66.90;;;;;;4995051;28;20042;-79
2022/06/29 04:05:06;;;;;;;7.40;2.50;;;18.80;66.70;;;;;;5011919;28;20128;-79
2022/06/29 04:07:32;;;;;;;3.22;1.92;;;18.80;66.70;;;;;;5019618;28;20025;-79
2022/06/29 04:09:59;;;;;;;4.00;1.67;;;18.80;66.80;;;;;;5013229;28;20484;-80
2022/06/29 04:12:29;;;;;;;4.03;2.20;;;18.80;66.80;;;;;;4999420;28;20018;-79
2022/06/29 04:14:56;;;;;;;3.95;2.60;;;18.80;66.70;;;;;;5012063;28;20109;-78
2022/06/29 04:17:21;;;;;;;6.82;2.58;;;18.80;66.70;;;;;;5006082;28;20125;-79
2022/06/29 04:19:47;;;;;;;4.15;2.05;;;18.80;66.80;;;;;;5012034;28;20033;-78
2022/06/29 04:22:13;;;;;;;4.22;2.47;;;18.80;66.80;;;;;;5011133;28;20017;-79
2022/06/29 04:24:38;;;;;;;3.13;1.95;;;18.80;66.80;;;;;;5012171;28;20113;-80
2022/06/29 04:27:04;;;;;;;3.65;2.10;;;18.80;66.90;;;;;;5004359;28;20026;-79
2022/06/29 04:29:30;;;;;;;4.35;2.05;;;18.80;67.00;;;;;;5012738;28;20025;-80
2022/06/29 04:31:55;;;;;;;4.63;2.75;;;18.80;67.20;;;;;;5005796;28;20109;-79
2022/06/29 04:34:21;;;;;;;5.65;2.65;;;18.80;67.30;;;;;;5011745;28;20112;-78
2022/06/29 04:36:47;;;;;;;6.88;2.83;;;18.90;67.40;;;;;;5007796;28;20073;-79
2022/06/29 04:39:12;;;;;;;4.15;2.83;;;19.00;67.40;;;;;;5011574;28;20595;-79
2022/06/29 04:41:38;;;;;;;4.10;2.28;;;19.00;67.10;;;;;;5011370;28;20105;-80
2022/06/29 04:44:10;;;;;;;5.05;2.53;;;19.00;66.90;;;;;;5010283;28;20037;-81
2022/06/29 04:46:35;;;;;;;4.43;2.30;;;19.00;67.00;;;;;;4993296;28;20045;-79
2022/06/29 04:49:02;;;;;;;4.65;2.75;;;19.00;66.80;;;;;;5009327;28;20037;-78
2022/06/29 04:51:30;;;;;;;5.15;3.03;;;19.10;67.20;;;;;;5010668;28;20022;-79
2022/06/29 04:53:56;;;;;;;6.80;2.63;;;19.00;67.00;;;;;;5006604;28;20049;-79
2022/06/29 04:56:24;;;;;;;4.70;2.22;;;19.10;67.10;;;;;;5010875;28;20026;-80
2022/06/29 04:58:51;;;;;;;4.18;2.20;;;19.10;67.00;;;;;;5005534;28;20038;-79
2022/06/29 05:01:18;;;;;;;6.55;2.45;;;19.20;66.90;;;;;;5009532;28;20083;-78
2022/06/29 05:03:43;;;;;;;6.55;2.83;;;19.30;67.00;;;;;;4999332;28;20456;-78
2022/06/29 05:06:10;;;;;;;4.13;2.15;;;19.40;66.70;;;;;;5012096;28;20056;-79
2022/06/29 05:08:36;;;;;;;5.22;3.15;;;19.40;66.40;;;;;;5002109;28;20034;-79
2022/06/29 05:11:02;;;;;;;3.28;2.35;;;19.40;66.20;;;;;;5022934;28;20036;-77
2022/06/29 05:13:27;;;;;;;4.15;2.15;;;19.50;66.30;;;;;;5005010;28;20457;-79
2022/06/29 05:15:54;;;;;;;5.80;2.97;;;19.50;66.10;;;;;;5007326;28;20201;-79
2022/06/29 05:18:20;;;;;;;7.18;3.50;;;19.60;65.90;;;;;;5000817;28;20030;-79
2022/06/29 05:20:45;;;;;;;5.28;2.35;;;19.70;65.80;;;;;;5004515;28;20068;-79
2022/06/29 05:23:11;;;;;;;3.85;2.30;;;19.60;65.80;;;;;;5004672;28;20026;-77
2022/06/29 05:25:39;;;;;;;4.70;2.28;;;19.70;65.80;;;;;;5001962;28;20070;-78
2022/06/29 05:28:06;;;;;;;5.22;2.40;;;19.80;65.60;;;;;;4995314;28;20018;-79
2022/06/29 05:30:32;;;;;;;4.97;2.70;;;19.90;65.40;;;;;;5010016;28;20837;-79
2022/06/29 05:32:58;;;;;;;3.90;2.25;;;19.90;64.80;;;;;;5008395;28;20040;-79
2022/06/29 05:35:23;;;;;;;4.68;2.30;;;20.00;64.80;;;;;;5003136;28;20022;-78
2022/06/29 05:37:49;;;;;;;4.15;2.08;;;20.10;64.70;;;;;;5010199;28;20105;-77
2022/06/29 05:40:15;;;;;;;5.18;2.25;;;20.20;64.60;;;;;;5003790;28;20113;-78
2022/06/29 05:42:41;;;;;;;7.03;2.58;;;20.30;64.50;;;;;;5012976;28;20063;-79
2022/06/29 05:45:07;;;;;;;3.67;2.00;;;20.30;64.10;;;;;;5011999;28;20038;-79
2022/06/29 05:47:33;;;;;;;3.28;1.25;;;20.40;63.90;;;;;;5011043;28;20026;-79
2022/06/29 05:50:00;;;;;;;5.53;2.40;;;20.50;64.20;;;;;;5005481;28;20120;-78
2022/06/29 05:52:27;;;;;;;6.97;2.75;;;20.60;63.20;;;;;;5010244;28;20029;-80
2022/06/29 05:54:53;;;;;;;7.05;2.63;;;20.60;62.20;;;;;;5006250;28;20657;-79
2022/06/29 05:57:21;;;;;;;5.72;2.42;;;20.70;62.60;;;;;;5009400;28;20045;-79
2022/06/29 05:59:47;;;;;;;4.00;2.20;;;20.70;62.70;;;;;;5008304;28;20430;-79
2022/06/29 06:02:13;;;;;;;5.50;2.47;;;20.80;62.40;;;;;;5010232;28;20030;-80
2022/06/29 06:04:39;;;;;;;5.43;3.10;;;20.90;62.50;;;;;;5007041;28;20121;-80
2022/06/29 06:07:05;;;;;;;7.88;3.65;;;21.00;62.30;;;;;;5002108;28;20030;-80
2022/06/29 06:09:32;;;;;;;4.88;2.42;;;21.10;61.90;;;;;;5006481;28;20080;-79
2022/06/29 06:11:58;;;;;;;8.68;2.90;;;21.20;61.20;;;;;;4999046;28;20033;-79
2022/06/29 06:14:24;;;;;;;5.82;2.65;;;21.20;61.10;;;;;;5006092;28;20030;-78
2022/06/29 06:16:49;;;;;;;6.03;2.95;;;21.30;60.90;;;;;;5000365;28;20064;-78
2022/06/29 06:19:15;;;;;;;4.45;2.75;;;21.40;60.00;;;;;;5002760;28;20062;-79
2022/06/29 06:21:41;;;;;;;4.50;2.97;;;21.40;60.60;;;;;;4999100;28;20038;-77
2022/06/29 06:24:07;;;;;;;7.10;2.45;;;21.40;60.70;;;;;;5009434;28;20033;-79
2022/06/29 06:26:32;;;;;;;4.53;2.13;;;21.50;60.70;;;;;;5004978;28;20141;-79
2022/06/29 06:28:58;;;;;;;3.20;1.10;;;21.70;61.20;;;;;;5008644;28;20026;-78
2022/06/29 06:31:25;;;;;;;2.90;1.10;;;21.70;61.30;;;;;;4996328;28;20100;-78
2022/06/29 06:33:51;;;;;;;3.90;2.17;;;21.80;61.20;;;;;;5007544;28;20026;-79
2022/06/29 06:36:17;;;;;;;4.07;1.75;;;22.00;61.00;;;;;;5006323;28;20739;-77
2022/06/29 06:38:43;;;;;;;5.72;2.50;;;22.10;60.50;;;;;;5005523;28;20030;-78
2022/06/29 06:41:25;;;;;;;5.32;3.45;;;22.10;59.50;;;;;;4997839;28;20030;-78
2022/06/29 06:44:00;;;;;;;2.58;1.65;;;22.20;58.90;;;;;;5001159;28;20018;-78
2022/06/29 06:46:28;;;;;;;6.22;3.08;;;22.40;59.60;;;;;;5001606;28;20074;-79
2022/06/29 06:48:54;;;;;;;5.55;2.15;;;22.40;58.70;;;;;;4998070;28;20807;-78
2022/06/29 06:51:23;;;;;;;4.97;2.83;;;22.50;59.30;;;;;;4998399;28;20026;-78
2022/06/29 06:53:50;;;;;;;2.60;1.40;;;22.60;59.10;;;;;;4999131;28;20028;-79
2022/06/29 06:56:15;;;;;;;5.93;2.50;;;22.70;59.10;;;;;;4996245;28;20018;-78
2022/06/29 06:58:42;;;;;;;4.82;2.13;;;22.80;58.90;;;;;;4994642;28;20146;-79
2022/06/29 07:01:09;;;;;;;3.97;1.63;;;22.90;58.80;;;;;;4999566;28;20439;-79
2022/06/29 07:03:37;;;;;;;6.93;3.00;;;22.90;58.90;;;;;;5014382;28;20053;-79
2022/06/29 07:06:10;;;;;;;6.20;3.80;;;22.80;58.20;;;;;;5027697;28;20061;-79
2022/06/29 07:08:37;;;;;;;5.57;3.03;;;22.80;58.20;;;;;;5010701;28;20019;-79
2022/06/29 07:11:05;;;;;;;4.68;2.13;;;23.00;58.70;;;;;;5021394;28;20028;-79
2022/06/29 07:13:35;;;;;;;5.90;2.50;;;23.10;58.60;;;;;;5022732;28;20013;-79
2022/06/29 07:16:05;;;;;;;;;;;23.20;57.90;;;;;;5007117;28;20453;-79
2022/06/29 07:18:34;;;;;;;6.65;2.60;;;23.40;57.20;;;;;;5010363;28;19932;-79
2022/06/29 07:21:00;;;;;;;5.65;2.63;;;23.40;56.50;;;;;;5010378;28;20098;-79
2022/06/29 07:23:27;;;;;;;5.82;2.08;;;23.50;57.10;;;;;;5016643;28;20023;-78
2022/06/29 07:25:54;;;;;;;4.30;2.20;;;23.70;57.50;;;;;;5018201;28;20148;-79
2022/06/29 07:28:20;;;;;;;12.05;4.82;;;23.90;57.70;;;;;;5019394;28;20530;-79
2022/06/29 07:30:49;;;;;;;6.18;3.25;;;23.90;55.70;;;;;;5016336;28;20033;-79
2022/06/29 07:33:15;;;;;;;5.78;2.78;;;23.90;55.30;;;;;;5012177;28;20014;-78
2022/06/29 07:35:41;;;;;;;6.75;3.20;;;24.00;56.60;;;;;;5019981;28;20081;-78
2022/06/29 07:38:09;;;;;;;8.60;4.00;;;24.20;56.60;;;;;;5012412;28;20022;-79
2022/06/29 07:40:34;;;;;;;5.72;2.97;;;24.20;53.10;;;;;;5016866;28;20098;-81
2022/06/29 07:43:00;;;;;;;6.38;2.65;;;24.30;54.10;;;;;;5008283;28;20374;-78
2022/06/29 07:45:26;;;;;;;7.53;3.30;;;24.30;53.00;;;;;;5018003;28;20120;-78
2022/06/29 07:47:52;;;;;;;5.50;2.90;;;24.40;54.00;;;;;;5021767;28;20002;-79
2022/06/29 07:50:18;;;;;;;5.53;2.70;;;24.60;52.80;;;;;;5008730;28;20350;-79
2022/06/29 07:52:44;;;;;;;6.18;3.40;;;24.70;52.50;;;;;;5015212;28;20129;-79
2022/06/29 07:55:09;;;;;;;7.03;3.17;;;24.70;52.20;;;;;;5009938;28;20056;-78
2022/06/29 07:57:36;;;;;;;7.13;2.08;;;24.70;51.30;;;;;;4997522;28;20026;-79
2022/06/29 08:00:06;;;;;;;5.25;2.10;;;24.80;53.50;;;;;;5012085;28;20021;-78
2022/06/29 08:02:32;;;;;;;6.32;2.67;;;24.90;53.70;;;;;;5016562;28;20041;-79
2022/06/29 08:04:59;;;;;;;5.20;1.80;;;24.90;53.50;;;;;;5002242;28;20058;-79
2022/06/29 08:07:25;;;;;;;3.95;2.25;;;24.90;53.90;;;;;;5016820;28;20018;-79
2022/06/29 08:09:52;;;;;;;4.97;1.33;;;25.10;54.40;;;;;;5009242;28;20030;-78
2022/06/29 08:12:18;;;;;;;6.55;2.83;;;25.20;55.00;;;;;;5010800;28;20060;-76
2022/06/29 08:14:43;;;;;;;5.80;2.83;;;25.40;53.20;;;;;;5009800;28;20030;-79
2022/06/29 08:17:10;;;;;;;5.53;2.38;;;25.50;53.70;;;;;;4996871;28;20097;-79
2022/06/29 08:19:35;;;;;;;9.27;2.80;;;25.50;51.60;;;;;;4996447;28;20030;-78
2022/06/29 08:22:01;;;;;;;5.38;2.45;;;25.50;51.30;;;;;;5006992;28;20129;-79
2022/06/29 08:24:28;;;;;;;3.55;1.50;;;25.50;51.30;;;;;;5007074;28;20084;-78
2022/06/29 08:26:54;;;;;;;3.58;1.35;;;25.60;52.00;;;;;;5003902;28;20037;-78
2022/06/29 08:29:20;;;;;;;4.43;1.50;;;25.60;50.30;;;;;;5008302;28;20389;-79
2022/06/29 08:31:46;;;;;;;3.08;1.10;;;25.70;53.40;;;;;;5013531;28;20033;-78
2022/06/29 08:34:14;;;;;;;3.65;1.58;;;25.60;52.50;;;;;;5004946;28;20107;-77
2022/06/29 08:36:40;;;;;;;4.35;1.45;;;25.80;54.40;;;;;;5002683;28;20091;-77
2022/06/29 08:39:05;;;;;;;8.23;2.22;;;25.90;51.90;;;;;;5006343;28;20763;-77
2022/06/29 08:41:33;;;;;;;6.00;2.00;;;26.00;49.20;;;;;;5006699;28;20511;-78
2022/06/29 08:44:03;;;;;;;4.70;1.88;;;26.10;49.00;;;;;;5001498;28;20492;-78
2022/06/29 08:46:28;;;;;;;4.63;1.98;;;26.20;48.70;;;;;;4999791;28;20026;-78
2022/06/29 08:48:54;;;;;;;4.80;1.55;;;26.30;48.90;;;;;;5011477;28;20037;-79
2022/06/29 08:51:22;;;;;;;4.43;1.50;;;26.30;51.70;;;;;;5002250;28;20025;-78
2022/06/29 08:53:49;;;;;;;4.13;1.67;;;26.40;49.70;;;;;;5011722;28;20112;-77
2022/06/29 08:56:17;;;;;;;4.20;1.92;;;26.60;47.80;;;;;;5002360;28;20491;-78
2022/06/29 08:58:45;;;;;;;4.10;1.30;;;26.60;47.30;;;;;;4990662;28;20025;-77
2022/06/29 09:01:12;;;;;;;5.40;1.67;;;26.70;48.80;;;;;;5000362;28;20029;-78
2022/06/29 09:03:37;;;;;;;4.25;1.17;;;26.70;49.10;;;;;;5010878;28;20050;-78
2022/06/29 09:06:06;;;;;;;4.10;1.20;;;26.80;51.90;;;;;;5004453;28;20555;-77
2022/06/29 09:08:32;;;;;;;3.80;1.55;;;26.80;49.60;;;;;;5004415;28;20105;-77
2022/06/29 09:11:25;;;;;;;3.90;1.30;;;26.80;51.30;;;;;;5007378;28;20048;-78
2022/06/29 09:14:10;;;;;;;3.60;1.35;;;27.00;51.40;;;;;;4995316;28;20023;-79
2022/06/29 09:16:56;;;;;;;2.80;1.13;;;27.30;52.00;;;;;;5009949;28;20045;-78
2022/06/29 09:19:43;;;;;;;3.80;1.58;;;27.50;49.30;;;;;;5012131;28;20113;-76
2022/06/29 09:22:09;;;;;;;4.90;1.25;;;27.60;48.00;;;;;;5011574;28;20144;-77
2022/06/29 09:24:34;;;;;;;2.72;1.20;;;27.80;47.50;;;;;;5020583;28;20416;-76
2022/06/29 09:27:06;;;;;;;6.90;1.60;;;27.90;49.90;;;;;;5007843;28;20030;-77
2022/06/29 09:29:34;;;;;;;5.97;1.90;;;27.90;46.60;;;;;;5007114;28;20029;-77
2022/06/29 09:32:04;;;;;;;6.07;1.13;;;27.90;47.40;;;;;;5000112;28;20019;-77
2022/06/29 09:34:30;;;;;;;4.70;1.57;;;28.00;51.60;;;;;;4989789;28;20019;-76
2022/06/29 09:36:57;;;;;;;7.22;2.30;;;28.10;49.20;;;;;;4992021;28;20408;-77
2022/06/29 09:39:41;;;;;;;6.25;1.65;;;28.30;47.20;;;;;;4994065;28;20033;-77
2022/06/29 09:42:09;;;;;;;4.50;1.27;;;28.50;50.70;;;;;;4990764;28;20023;-77
2022/06/29 09:44:42;;;;;;;5.40;1.85;;;28.50;48.30;;;;;;5002415;28;20026;-77
2022/06/29 09:47:11;;;;;;;5.43;1.45;;;28.50;49.30;;;;;;5004119;28;20125;-76
2022/06/29 09:49:38;;;;;;;5.65;1.73;;;28.70;50.00;;;;;;4999602;28;20029;-76
2022/06/29 09:52:06;;;;;;;5.45;1.55;;;28.80;44.80;;;;;;5006061;28;20034;-76
2022/06/29 09:54:54;;;;;;;5.57;1.38;;;28.90;43.80;;;;;;5015271;28;20040;-77
2022/06/29 09:57:28;;;;;;;3.58;1.02;;;29.10;49.40;;;;;;5021224;28;20018;-77
2022/06/29 10:02:47;;;;;;;2.33;1.25;;;29.30;46.90;;;;;;5025079;28;20077;-76
2022/06/29 10:05:17;;;;;;;4.07;1.70;;;29.30;45.40;;;;;;5003206;28;20081;-79
2022/06/29 10:07:47;;;;;;;6.68;1.15;;;29.40;46.10;;;;;;5005769;28;20036;-78
2022/06/29 10:10:15;;;;;;;2.47;0.90;;;29.30;42.60;;;;;;5006633;28;20037;-78
2022/06/29 10:16:02;;;;;;;3.78;1.20;;;29.60;49.20;;;;;;5016182;28;20040;-78
2022/06/29 10:18:31;;;;;;;3.03;1.33;;;29.50;40.80;;;;;;5015670;28;20045;-76
2022/06/29 10:20:58;;;;;;;4.75;1.80;;;29.60;40.90;;;;;;5014809;28;20495;-77
2022/06/29 10:23:44;;;;;;;4.00;1.48;;;29.70;42.50;;;;;;5018647;28;20033;-77
2022/06/29 10:26:39;;;;;;;3.13;1.20;;;30.00;47.20;;;;;;5004059;28;20029;-76
2022/06/29 10:29:05;;;;;;;3.28;1.10;;;29.90;46.50;;;;;;5004118;28;20018;-77
2022/06/29 10:31:51;;;;;;;5.90;1.20;;;29.60;42.80;;;;;;5003537;28;20026;-77
2022/06/29 10:34:32;;;;;;;6.05;1.60;;;29.50;41.40;;;;;;4998614;28;20109;-78
2022/06/29 10:37:09;;;;;;;3.33;1.10;;;29.30;43.60;;;;;;5006949;28;20024;-77
2022/06/29 10:39:43;;;;;;;4.13;1.33;;;29.30;47.60;;;;;;4997838;28;20033;-76
2022/06/29 10:45:16;;;;;;;2.90;0.93;;;29.70;46.60;;;;;;5000467;28;20495;-77
2022/06/29 10:47:58;;;;;;;2.30;0.88;;;30.10;47.80;;;;;;4997487;28;20127;-79
2022/06/29 10:50:31;;;;;;;3.42;1.25;;;30.20;46.10;;;;;;4997500;28;20050;-78
2022/06/29 10:53:05;;;;;;;3.28;1.27;;;30.20;44.80;;;;;;4998983;28;20073;-77
2022/06/29 10:55:33;;;;;;;2.63;1.08;;;30.10;48.70;;;;;;4997231;28;20018;-78
2022/06/29 10:58:00;;;;;;;2.70;1.25;;;30.10;48.70;;;;;;4993871;28;20020;-80
2022/06/29 11:00:29;;;;;;;2.30;0.63;;;30.20;48.80;;;;;;4998668;28;20050;-76
2022/06/29 11:02:56;;;;;;;1.65;0.80;;;30.30;43.10;;;;;;4995051;28;20015;-77
2022/06/29 11:05:22;;;;;;;3.45;1.05;;;30.30;40.90;;;;;;4993730;28;20125;-76
2022/06/29 11:13:26;;;;;;;4.72;1.30;;;30.60;45.40;;;;;;4989362;28;20072;-76
2022/06/29 11:15:55;;;;;;;4.20;1.10;;;30.80;46.80;;;;;;4986259;28;20631;-76
2022/06/29 11:18:24;;;;;;;2.10;0.80;;;30.90;46.30;;;;;;4989986;28;20088;-76
2022/06/29 11:20:51;;;;;;;;;;;30.90;46.40;;;;;;4998360;28;20128;-79
2022/06/29 11:23:21;;;;;;;2.70;1.00;;;30.80;48.70;;;;;;4990762;28;19992;-78
2022/06/29 11:25:49;;;;;;;2.10;1.00;;;30.80;44.00;;;;;;4995931;28;20042;-77
2022/06/29 11:28:19;;;;;;;3.38;1.00;;;30.70;44.00;;;;;;4992358;28;20042;-77
2022/06/29 11:30:57;;;;;;;4.65;1.30;;;30.70;50.40;;;;;;4993383;28;20022;-76
2022/06/29 11:33:27;;;;;;;2.42;1.10;;;30.70;46.10;;;;;;5009339;28;20570;-77
2022/06/29 11:35:54;;;;;;;5.20;1.02;;;30.70;46.20;;;;;;5005462;28;20045;-77
2022/06/29 11:38:20;;;;;;;5.72;1.10;;;30.60;41.30;;;;;;5005073;28;20038;-73
2022/06/29 11:40:49;;;;;;;2.80;1.08;;;30.50;42.30;;;;;;5005042;28;20022;-77
2022/06/29 11:43:18;;;;;;;2.77;0.90;;;30.50;42.60;;;;;;5008044;28;20018;-76
2022/06/29 11:45:45;;;;;;;;;;;30.60;44.60;;;;;;5007099;28;20050;-77
2022/06/29 11:48:20;;;;;;;1.45;0.60;;;30.80;43.60;;;;;;4997028;28;20007;-77
2022/06/29 11:51:00;;;;;;;3.70;0.80;;;30.90;48.10;;;;;;5005287;28;20022;-77
2022/06/29 11:53:44;;;;;;;3.65;1.30;;;31.00;45.40;;;;;;5004710;28;20022;-76
2022/06/29 11:56:17;;;;;;;3.50;1.00;;;30.80;38.90;;;;;;5002864;28;20022;-77
2022/06/29 11:58:50;;;;;;;4.40;1.15;;;30.80;43.80;;;;;;5000268;28;20065;-76
2022/06/29 12:01:21;;;;;;;4.45;1.65;;;30.80;37.50;;;;;;4993012;28;20021;-76
2022/06/29 12:03:58;;;;;;;4.03;1.42;;;30.90;40.70;;;;;;4999278;28;20050;-77
2022/06/29 12:06:26;;;;;;;2.72;0.77;;;31.10;44.50;;;;;;5008217;28;20124;-77
2022/06/29 12:08:53;;;;;;;4.18;1.27;;;31.10;42.20;;;;;;4988579;28;20084;-75
2022/06/29 12:11:20;;;;;;;4.30;1.20;;;31.10;48.40;;;;;;5007803;28;20026;-76
2022/06/29 12:13:46;;;;;;;2.60;0.93;;;31.00;42.80;;;;;;5000157;28;20029;-77
2022/06/29 12:16:12;;;;;;;3.80;1.00;;;31.10;38.70;;;;;;5010653;28;20025;-77
2022/06/29 12:18:38;;;;;;;3.00;0.90;;;31.20;47.50;;;;;;5006465;28;20033;-77
2022/06/29 12:21:03;;;;;;;2.67;0.80;;;31.10;42.80;;;;;;4991352;28;20101;-77
2022/06/29 12:23:31;;;;;;;2.22;0.70;;;31.20;41.40;;;;;;5004109;28;20450;-78
2022/06/29 12:25:57;;;;;;;2.72;0.77;;;31.40;49.20;;;;;;4992110;28;20137;-78
2022/06/29 12:28:23;;;;;;;2.80;1.10;;;31.30;43.20;;;;;;4991997;28;20109;-78
2022/06/29 12:30:50;;;;;;;4.78;1.50;;;31.10;43.80;;;;;;5010092;28;20100;-77
2022/06/29 12:33:15;;;;;;;4.10;0.95;;;31.10;39.10;;;;;;5005489;28;20028;-77
2022/06/29 12:35:41;;;;;;;3.22;0.90;;;31.30;43.40;;;;;;4994589;28;20392;-77
2022/06/29 12:38:08;;;;;;;2.45;1.02;;;31.40;43.50;;;;;;4998931;28;20080;-76
2022/06/29 12:40:34;;;;;;;2.20;0.82;;;31.40;41.70;;;;;;5011098;28;20373;-75
2022/06/29 12:43:01;;;;;;;2.42;1.10;;;31.30;49.30;;;;;;5004452;28;20439;-77
2022/06/29 12:45:27;;;;;;;4.78;1.45;;;31.20;43.90;;;;;;4998027;28;20045;-77
2022/06/29 12:47:53;;;;;;;5.55;1.13;;;31.20;41.80;;;;;;4992747;28;20520;-77
2022/06/29 12:50:19;;;;;;;3.53;1.20;;;31.20;46.70;;;;;;5001500;28;20026;-78
2022/06/29 12:52:48;;;;;;;2.17;0.90;;;31.10;41.30;;;;;;4999810;28;20022;-77
2022/06/29 12:55:14;;;;;;;4.22;1.75;;;31.00;40.40;;;;;;5008542;28;20029;-77
2022/06/29 12:57:40;;;;;;;4.47;1.30;;;30.80;38.80;;;;;;5009705;28;20030;-78
2022/06/29 13:00:07;;;;;;;5.55;1.27;;;30.70;41.20;;;;;;5005417;28;20101;-77
2022/06/29 13:02:33;;;;;;;3.05;1.10;;;30.60;43.00;;;;;;4991333;28;20031;-77
2022/06/29 13:04:58;;;;;;;3.13;1.10;;;30.40;41.70;;;;;;5001504;28;20562;-75
2022/06/29 13:07:26;;;;;;;3.08;0.90;;;30.30;45.80;;;;;;4990982;28;20026;-76